createdAt,value
2023-05-25T00:01:24.576Z,100.00
2023-05-25T00:06:27.881Z,100.00
2023-05-25T00:11:29.562Z,100.00
2023-05-25T00:16:31.868Z,100.00
2023-05-25T00:21:38.339Z,100.00
2023-05-25T00:26:40.105Z,100.00
2023-05-25T00:31:41.839Z,100.00
2023-05-25T00:36:43.566Z,100.00
2023-05-25T00:41:46.604Z,100.00
2023-05-25T00:46:50.804Z,100.00
2023-05-25T00:51:53.083Z,100.00
2023-05-25T00:57:04.384Z,100.00
2023-05-25T01:02:09.477Z,100.00
2023-05-25T01:07:17.779Z,100.00
2023-05-25T01:12:22.538Z,100.00
2023-05-25T01:17:24.322Z,100.00
2023-05-25T01:22:32.670Z,100.00
2023-05-25T01:27:46.908Z,100.00
2023-05-25T01:32:49.613Z,100.00
2023-05-25T01:37:52.577Z,100.00
2023-05-25T01:42:54.366Z,100.00
2023-05-25T01:48:24.031Z,100.00
2023-05-25T01:53:31.481Z,100.00
2023-05-25T01:58:38.771Z,100.00
2023-05-25T02:03:42.036Z,100.00
2023-05-25T02:08:45.782Z,100.00
2023-05-25T02:13:47.539Z,100.00
2023-05-25T02:18:50.919Z,100.00
2023-05-25T02:23:54.059Z,100.00
2023-05-25T02:28:55.712Z,100.00
2023-05-25T02:33:57.538Z,100.00
2023-05-25T02:39:01.433Z,100.00
2023-05-25T02:44:03.812Z,100.00
2023-05-25T02:49:06.505Z,100.00
2023-05-25T02:54:09.741Z,100.00
2023-05-25T02:59:11.464Z,100.00
2023-05-25T03:04:14.276Z,100.00
2023-05-25T03:09:16.215Z,100.00
2023-05-25T03:14:18.056Z,100.00
2023-05-25T03:19:27.322Z,100.00
2023-05-25T03:24:29.207Z,100.00
2023-05-25T03:29:34.973Z,100.00
2023-05-25T03:34:37.497Z,100.00
2023-05-25T03:39:40.858Z,100.00
2023-05-25T03:44:42.617Z,100.00
2023-05-25T03:49:45.138Z,100.00
2023-05-25T03:54:47.912Z,100.00
2023-05-25T03:59:49.554Z,100.00
2023-05-25T04:04:52.093Z,100.00
2023-05-25T04:09:53.796Z,98.00
2023-05-25T04:14:56.470Z,93.51
2023-05-25T04:19:59.879Z,90.03
2023-05-25T04:25:02.363Z,85.41
2023-05-25T04:30:05.058Z,89.50
2023-05-25T04:35:28.465Z,94.54
2023-05-25T04:40:33.259Z,92.01
2023-05-25T04:45:35.519Z,89.95
2023-05-25T04:50:40.196Z,91.90
2023-05-25T04:55:43.102Z,86.24
2023-05-25T05:00:45.580Z,83.93
2023-05-25T05:05:47.544Z,88.23
2023-05-25T05:10:54.909Z,91.74
2023-05-25T05:15:58.560Z,86.13
2023-05-25T05:21:00.510Z,87.60
2023-05-25T05:26:04.942Z,87.31
2023-05-25T05:31:07.559Z,86.78
2023-05-25T05:36:10.287Z,79.73
2023-05-25T05:41:14.513Z,77.69
2023-05-25T05:46:21.150Z,80.61
2023-05-25T05:51:22.859Z,82.39
2023-05-25T05:56:24.643Z,80.46
2023-05-25T06:01:26.335Z,82.10
2023-05-25T06:06:28.661Z,79.83
2023-05-25T06:11:31.450Z,78.02
2023-05-25T06:16:33.420Z,76.15
2023-05-25T06:21:35.212Z,73.88
2023-05-25T06:26:36.885Z,74.23
2023-05-25T06:31:38.757Z,72.13
2023-05-25T06:36:41.784Z,69.64
2023-05-25T06:41:44.916Z,64.57
2023-05-25T06:46:52.685Z,61.99
2023-05-25T06:51:54.428Z,59.34
2023-05-25T06:56:56.183Z,62.29
2023-05-25T07:01:59.163Z,62.36
2023-05-25T07:07:01.107Z,49.09
2023-05-25T07:17:04.632Z,49.01
2023-05-25T07:22:06.341Z,53.28
2023-05-25T07:27:08.332Z,47.77
2023-05-25T07:32:09.977Z,52.32
2023-05-25T07:37:11.650Z,48.52
2023-05-25T07:42:13.311Z,45.57
2023-05-25T07:47:15.044Z,52.61
2023-05-25T07:52:16.838Z,50.47
2023-05-25T07:57:18.557Z,47.21
2023-05-25T08:02:20.292Z,43.10
2023-05-25T08:07:22.029Z,44.50
2023-05-25T08:12:38.501Z,41.42
2023-05-25T08:17:45.783Z,42.88
2023-05-25T08:22:47.502Z,41.42
2023-05-25T08:27:49.261Z,40.45
2023-05-25T08:32:51.169Z,46.49
2023-05-25T08:37:52.859Z,43.11
2023-05-25T08:42:54.819Z,39.86
2023-05-25T08:48:01.097Z,40.81
2023-05-25T08:53:08.307Z,39.95
2023-05-25T08:58:19.836Z,42.82
2023-05-25T09:03:22.233Z,42.57
2023-05-25T09:08:25.012Z,39.07
2023-05-25T09:13:26.868Z,39.46
2023-05-25T09:18:28.669Z,40.79
2023-05-25T09:23:30.712Z,42.14
2023-05-25T09:28:32.394Z,41.07
2023-05-25T09:33:36.822Z,42.42
2023-05-25T09:38:40.515Z,42.41
2023-05-25T09:43:48.904Z,41.56
2023-05-25T09:49:00.490Z,39.45
2023-05-25T09:54:04.130Z,38.83
2023-05-25T09:59:06.641Z,39.89
2023-05-25T10:04:08.359Z,43.58
2023-05-25T10:09:14.024Z,43.40
2023-05-25T10:14:22.646Z,40.81
2023-05-25T10:19:57.278Z,41.65
2023-05-25T10:25:29.126Z,43.95
2023-05-25T10:30:32.729Z,45.35
2023-05-25T10:35:46.629Z,42.43
2023-05-25T10:40:51.530Z,41.32
2023-05-25T10:45:55.508Z,41.73
2023-05-25T10:50:57.291Z,44.71
2023-05-25T10:56:04.866Z,41.65
2023-05-25T11:01:12.166Z,40.49
2023-05-25T11:06:15.807Z,41.93
2023-05-25T11:11:17.776Z,43.07
2023-05-25T11:16:20.196Z,41.64
2023-05-25T11:21:27.730Z,44.00
2023-05-25T11:26:31.030Z,42.23
2023-05-25T11:31:39.634Z,41.89
2023-05-25T11:36:44.131Z,41.69
2023-05-25T11:41:52.075Z,40.06
2023-05-25T11:46:57.599Z,41.49
2023-05-25T11:52:00.189Z,42.56
2023-05-25T11:57:02.704Z,42.14
2023-05-25T12:02:04.807Z,40.66
2023-05-25T12:07:07.937Z,41.74
2023-05-25T12:12:09.660Z,42.38
2023-05-25T12:17:11.613Z,43.46
2023-05-25T12:22:14.273Z,45.93
2023-05-25T12:27:20.586Z,44.53
2023-05-25T12:32:22.298Z,43.65
2023-05-25T12:37:24.216Z,43.36
2023-05-25T12:42:31.319Z,45.25
2023-05-25T12:47:33.006Z,48.10
2023-05-25T12:52:46.553Z,45.49
2023-05-25T12:57:52.701Z,44.56
2023-05-25T13:02:54.946Z,42.58
2023-05-25T13:07:58.249Z,45.74
2023-05-25T13:13:00.820Z,45.01
2023-05-25T13:18:02.810Z,45.46
2023-05-25T13:23:06.051Z,46.44
2023-05-25T13:28:07.696Z,47.96
2023-05-25T13:33:09.695Z,50.06
2023-05-25T13:38:11.558Z,48.87
2023-05-25T13:43:13.209Z,49.88
2023-05-25T13:48:14.938Z,48.10
2023-05-25T13:53:16.936Z,49.49
2023-05-25T13:58:18.584Z,49.41
2023-05-25T14:03:20.429Z,49.51
2023-05-25T14:08:22.538Z,49.92
2023-05-25T14:13:24.197Z,50.47
2023-05-25T14:18:25.877Z,48.21
2023-05-25T14:23:27.539Z,49.10
2023-05-25T14:28:29.180Z,49.10
2023-05-25T14:33:30.869Z,49.69
2023-05-25T14:38:32.815Z,48.50
2023-05-25T14:43:35.009Z,50.01
2023-05-25T14:48:36.718Z,49.83
2023-05-25T14:53:38.595Z,50.24
2023-05-25T14:58:40.444Z,50.50
2023-05-25T15:03:42.308Z,50.67
2023-05-25T15:08:44.063Z,50.11
2023-05-25T15:13:46.108Z,50.72
2023-05-25T15:18:47.756Z,50.55
2023-05-25T15:23:49.576Z,51.39
2023-05-25T15:28:51.217Z,51.46
2023-05-25T15:33:58.225Z,52.27
2023-05-25T15:39:00.783Z,52.68
2023-05-25T15:44:02.475Z,51.46
2023-05-25T15:49:10.771Z,51.80
2023-05-25T15:54:14.743Z,52.04
2023-05-25T15:59:16.680Z,52.72
2023-05-25T16:04:19.334Z,53.08
2023-05-25T16:09:21.066Z,53.05
2023-05-25T16:14:22.717Z,53.06
2023-05-25T16:19:24.698Z,52.41
2023-05-25T16:24:27.003Z,53.70
2023-05-25T16:29:29.242Z,53.77
2023-05-25T16:34:31.178Z,54.02
2023-05-25T16:39:33.451Z,53.97
2023-05-25T16:44:35.118Z,53.16
2023-05-25T16:49:36.760Z,54.14
2023-05-25T16:54:38.741Z,54.54
2023-05-25T16:59:41.021Z,53.78
2023-05-25T17:04:42.732Z,53.84
2023-05-25T17:09:44.374Z,54.40
2023-05-25T17:14:48.329Z,54.48
2023-05-25T17:19:49.998Z,54.59
2023-05-25T17:24:51.661Z,54.63
2023-05-25T17:29:53.308Z,55.06
2023-05-25T17:34:54.962Z,55.08
2023-05-25T17:39:56.666Z,55.65
2023-05-25T17:44:58.359Z,56.78
2023-05-25T17:49:59.990Z,56.84
2023-05-25T17:55:01.716Z,56.95
2023-05-25T18:00:04.209Z,56.65
2023-05-25T18:05:13.997Z,57.25
2023-05-25T18:10:15.819Z,57.89
2023-05-25T18:15:17.801Z,58.35
2023-05-25T18:20:19.566Z,58.99
2023-05-25T18:25:21.371Z,59.59
2023-05-25T18:30:23.021Z,59.41
2023-05-25T18:35:24.728Z,60.96
2023-05-25T18:40:26.365Z,61.24
2023-05-25T18:45:28.118Z,63.90
2023-05-25T18:50:29.753Z,65.59
2023-05-25T18:55:31.394Z,66.62
2023-05-25T19:00:33.122Z,65.94
2023-05-25T19:05:35.004Z,66.35
2023-05-25T19:10:36.684Z,66.46
2023-05-25T19:15:38.308Z,68.49
2023-05-25T19:20:39.974Z,69.50
2023-05-25T19:25:41.613Z,69.28
2023-05-25T19:30:43.296Z,72.44
2023-05-25T19:35:45.345Z,70.21
2023-05-25T19:40:47.230Z,70.59
2023-05-25T19:45:48.914Z,71.66
2023-05-25T19:50:50.694Z,71.76
2023-05-25T19:55:52.410Z,71.84
2023-05-25T20:00:54.173Z,73.08
2023-05-25T20:05:56.414Z,74.10
2023-05-25T20:10:58.112Z,75.70
2023-05-25T20:15:59.852Z,74.77
2023-05-25T20:21:01.608Z,76.07
2023-05-25T20:26:03.242Z,76.40
2023-05-25T20:31:06.486Z,79.37
2023-05-25T20:36:08.153Z,79.20
2023-05-25T20:41:09.834Z,79.65
2023-05-25T20:46:11.604Z,81.67
2023-05-25T20:51:14.343Z,83.03
2023-05-25T20:56:16.205Z,84.23
2023-05-25T21:01:17.886Z,83.84
2023-05-25T21:06:19.636Z,84.06
2023-05-25T21:11:22.093Z,85.57
2023-05-25T21:16:23.772Z,85.52
2023-05-25T21:21:25.727Z,87.24
2023-05-25T21:26:31.049Z,88.66
2023-05-25T21:31:32.808Z,88.90
2023-05-25T21:36:34.550Z,89.51
2023-05-25T21:41:36.230Z,90.45
2023-05-25T21:46:38.835Z,91.73
2023-05-25T21:51:40.545Z,91.59
2023-05-25T21:56:42.253Z,92.25
2023-05-25T22:01:43.958Z,93.99
2023-05-25T22:06:45.701Z,94.79
2023-05-25T22:11:47.344Z,94.28
2023-05-25T22:16:49.035Z,95.76
2023-05-25T22:21:50.746Z,95.47
2023-05-25T22:26:52.592Z,96.15
2023-05-25T22:31:54.255Z,97.51
2023-05-25T22:36:56.089Z,97.16
2023-05-25T22:41:57.736Z,97.64
2023-05-25T22:46:59.382Z,97.94
2023-05-25T22:52:01.142Z,99.14
2023-05-25T22:57:02.937Z,99.98
2023-05-25T23:02:04.946Z,99.45
2023-05-25T23:07:06.641Z,98.80
2023-05-25T23:12:08.361Z,99.59
2023-05-25T23:17:10.485Z,99.76
2023-05-25T23:22:12.132Z,100.00
2023-05-25T23:27:13.821Z,100.00
2023-05-25T23:32:15.537Z,100.00
2023-05-25T23:37:17.289Z,100.00
2023-05-25T23:42:18.929Z,100.00
2023-05-25T23:47:20.564Z,100.00
2023-05-25T23:52:22.210Z,100.00
2023-05-25T23:57:23.864Z,100.00
